sensor_id;sensor_type;location;lat;lon;timestamp;temperature;humidity
74946;HTU21D;63509;45.250;38.102;2024-02-21T00:01:08;3.13;64.83
74946;HTU21D;63509;45.250;38.102;2024-02-21T00:03:40;3.14;64.86
74946;HTU21D;63509;45.250;38.102;2024-02-21T00:06:06;3.13;64.86
74946;HTU21D;63509;45.250;38.102;2024-02-21T00:08:32;3.14;64.88
74946;HTU21D;63509;45.250;38.102;2024-02-21T00:10:58;3.13;64.88
74946;HTU21D;63509;45.250;38.102;2024-02-21T00:13:24;3.12;64.89
74946;HTU21D;63509;45.250;38.102;2024-02-21T00:15:50;3.14;64.91
74946;HTU21D;63509;45.250;38.102;2024-02-21T00:18:16;3.14;64.89
74946;HTU21D;63509;45.250;38.102;2024-02-21T00:20:42;3.14;64.92
74946;HTU21D;63509;45.250;38.102;2024-02-21T00:23:09;3.13;64.92
74946;HTU21D;63509;45.250;38.102;2024-02-21T00:25:35;3.11;64.93
74946;HTU21D;63509;45.250;38.102;2024-02-21T00:28:01;3.10;64.97
74946;HTU21D;63509;45.250;38.102;2024-02-21T00:30:27;3.11;64.99
74946;HTU21D;63509;45.250;38.102;2024-02-21T00:32:53;3.11;64.99
74946;HTU21D;63509;45.250;38.102;2024-02-21T00:35:19;3.08;65.02
74946;HTU21D;63509;45.250;38.102;2024-02-21T00:37:45;3.08;65.07
74946;HTU21D;63509;45.250;38.102;2024-02-21T00:40:11;3.09;65.08
74946;HTU21D;63509;45.250;38.102;2024-02-21T00:42:37;3.10;65.10
74946;HTU21D;63509;45.250;38.102;2024-02-21T00:45:04;3.11;65.10
74946;HTU21D;63509;45.250;38.102;2024-02-21T00:47:30;3.11;65.09
74946;HTU21D;63509;45.250;38.102;2024-02-21T00:49:56;3.13;65.11
74946;HTU21D;63509;45.250;38.102;2024-02-21T00:52:22;3.13;65.09
74946;HTU21D;63509;45.250;38.102;2024-02-21T00:54:48;3.14;65.11
74946;HTU21D;63509;45.250;38.102;2024-02-21T00:57:15;3.15;65.11
74946;HTU21D;63509;45.250;38.102;2024-02-21T00:59:41;3.17;65.10
74946;HTU21D;63509;45.250;38.102;2024-02-21T01:02:08;3.16;65.06
74946;HTU21D;63509;45.250;38.102;2024-02-21T01:04:34;3.16;65.08
74946;HTU21D;63509;45.250;38.102;2024-02-21T01:07:03;3.17;65.08
74946;HTU21D;63509;45.250;38.102;2024-02-21T01:09:30;3.18;65.09
74946;HTU21D;63509;45.250;38.102;2024-02-21T01:11:56;3.18;65.09
74946;HTU21D;63509;45.250;38.102;2024-02-21T01:14:22;3.18;65.08
74946;HTU21D;63509;45.250;38.102;2024-02-21T01:16:48;3.16;65.09
74946;HTU21D;63509;45.250;38.102;2024-02-21T01:19:14;3.17;65.11
74946;HTU21D;63509;45.250;38.102;2024-02-21T01:21:40;3.15;65.11
74946;HTU21D;63509;45.250;38.102;2024-02-21T01:24:06;3.14;65.12
74946;HTU21D;63509;45.250;38.102;2024-02-21T01:26:32;3.13;65.14
74946;HTU21D;63509;45.250;38.102;2024-02-21T01:28:58;3.13;65.14
74946;HTU21D;63509;45.250;38.102;2024-02-21T01:31:24;3.12;65.14
74946;HTU21D;63509;45.250;38.102;2024-02-21T01:33:50;3.11;65.18
74946;HTU21D;63509;45.250;38.102;2024-02-21T01:36:17;3.12;65.17
74946;HTU21D;63509;45.250;38.102;2024-02-21T01:38:43;3.11;65.14
74946;HTU21D;63509;45.250;38.102;2024-02-21T01:41:09;3.11;65.16
74946;HTU21D;63509;45.250;38.102;2024-02-21T01:43:35;3.09;65.17
74946;HTU21D;63509;45.250;38.102;2024-02-21T01:46:01;3.11;65.15
74946;HTU21D;63509;45.250;38.102;2024-02-21T01:48:28;3.10;65.13
74946;HTU21D;63509;45.250;38.102;2024-02-21T01:50:54;3.11;65.11
74946;HTU21D;63509;45.250;38.102;2024-02-21T01:53:24;3.12;65.11
74946;HTU21D;63509;45.250;38.102;2024-02-21T01:55:51;3.10;65.11
74946;HTU21D;63509;45.250;38.102;2024-02-21T01:58:18;3.13;65.08
74946;HTU21D;63509;45.250;38.102;2024-02-21T02:00:46;3.09;65.07
74946;HTU21D;63509;45.250;38.102;2024-02-21T02:03:14;3.09;65.12
74946;HTU21D;63509;45.250;38.102;2024-02-21T02:05:47;3.08;65.14
74946;HTU21D;63509;45.250;38.102;2024-02-21T02:08:18;3.06;65.12
74946;HTU21D;63509;45.250;38.102;2024-02-21T02:10:45;3.06;65.11
74946;HTU21D;63509;45.250;38.102;2024-02-21T02:13:12;3.04;65.13
74946;HTU21D;63509;45.250;38.102;2024-02-21T02:15:42;3.04;65.17
74946;HTU21D;63509;45.250;38.102;2024-02-21T02:18:09;3.03;65.14
74946;HTU21D;63509;45.250;38.102;2024-02-21T02:20:36;3.03;65.15
74946;HTU21D;63509;45.250;38.102;2024-02-21T02:25:39;3.03;65.18
74946;HTU21D;63509;45.250;38.102;2024-02-21T02:28:06;3.02;65.19
74946;HTU21D;63509;45.250;38.102;2024-02-21T02:30:34;3.01;65.21
74946;HTU21D;63509;45.250;38.102;2024-02-21T02:33:05;2.99;65.21
74946;HTU21D;63509;45.250;38.102;2024-02-21T02:35:31;2.95;65.20
74946;HTU21D;63509;45.250;38.102;2024-02-21T02:37:58;2.90;65.24
74946;HTU21D;63509;45.250;38.102;2024-02-21T02:40:24;2.91;65.27
74946;HTU21D;63509;45.250;38.102;2024-02-21T02:42:51;2.90;65.27
74946;HTU21D;63509;45.250;38.102;2024-02-21T02:45:17;2.90;65.28
74946;HTU21D;63509;45.250;38.102;2024-02-21T02:47:47;2.89;65.22
74946;HTU21D;63509;45.250;38.102;2024-02-21T02:50:13;2.84;65.22
74946;HTU21D;63509;45.250;38.102;2024-02-21T02:52:40;2.82;65.25
74946;HTU21D;63509;45.250;38.102;2024-02-21T02:55:06;2.80;65.29
74946;HTU21D;63509;45.250;38.102;2024-02-21T02:57:33;2.79;65.30
74946;HTU21D;63509;45.250;38.102;2024-02-21T02:59:59;2.76;65.30
74946;HTU21D;63509;45.250;38.102;2024-02-21T03:02:25;2.80;65.30
74946;HTU21D;63509;45.250;38.102;2024-02-21T03:04:51;2.79;65.31
74946;HTU21D;63509;45.250;38.102;2024-02-21T03:07:17;2.78;65.30
74946;HTU21D;63509;45.250;38.102;2024-02-21T03:09:43;2.78;65.31
74946;HTU21D;63509;45.250;38.102;2024-02-21T03:12:09;2.78;65.31
74946;HTU21D;63509;45.250;38.102;2024-02-21T03:14:36;2.79;65.27
74946;HTU21D;63509;45.250;38.102;2024-02-21T03:17:02;2.76;65.27
74946;HTU21D;63509;45.250;38.102;2024-02-21T03:19:29;2.75;65.30
74946;HTU21D;63509;45.250;38.102;2024-02-21T03:21:55;2.78;65.29
74946;HTU21D;63509;45.250;38.102;2024-02-21T03:24:21;2.76;65.28
74946;HTU21D;63509;45.250;38.102;2024-02-21T03:26:47;2.76;65.27
74946;HTU21D;63509;45.250;38.102;2024-02-21T03:29:16;2.74;65.30
74946;HTU21D;63509;45.250;38.102;2024-02-21T03:31:42;2.74;65.30
74946;HTU21D;63509;45.250;38.102;2024-02-21T03:34:12;2.72;65.31
74946;HTU21D;63509;45.250;38.102;2024-02-21T03:36:38;2.74;65.33
74946;HTU21D;63509;45.250;38.102;2024-02-21T03:39:04;2.74;65.31
74946;HTU21D;63509;45.250;38.102;2024-02-21T03:41:30;2.71;65.32
74946;HTU21D;63509;45.250;38.102;2024-02-21T03:43:56;2.72;65.34
74946;HTU21D;63509;45.250;38.102;2024-02-21T03:46:24;2.73;65.33
74946;HTU21D;63509;45.250;38.102;2024-02-21T03:48:50;2.71;65.33
74946;HTU21D;63509;45.250;38.102;2024-02-21T03:51:17;2.71;65.35
74946;HTU21D;63509;45.250;38.102;2024-02-21T03:53:43;2.73;65.33
74946;HTU21D;63509;45.250;38.102;2024-02-21T03:56:09;2.73;65.36
74946;HTU21D;63509;45.250;38.102;2024-02-21T03:58:35;2.74;65.34
74946;HTU21D;63509;45.250;38.102;2024-02-21T04:01:02;2.73;65.31
74946;HTU21D;63509;45.250;38.102;2024-02-21T04:03:28;2.74;65.33
74946;HTU21D;63509;45.250;38.102;2024-02-21T04:05:55;2.76;65.33
74946;HTU21D;63509;45.250;38.102;2024-02-21T04:08:22;2.79;65.46
74946;HTU21D;63509;45.250;38.102;2024-02-21T04:10:48;2.84;65.48
74946;HTU21D;63509;45.250;38.102;2024-02-21T04:13:14;2.85;65.42
74946;HTU21D;63509;45.250;38.102;2024-02-21T04:15:42;2.86;65.39
74946;HTU21D;63509;45.250;38.102;2024-02-21T04:18:09;2.87;65.37
74946;HTU21D;63509;45.250;38.102;2024-02-21T04:20:36;2.85;65.37
74946;HTU21D;63509;45.250;38.102;2024-02-21T04:23:02;2.82;65.36
74946;HTU21D;63509;45.250;38.102;2024-02-21T04:25:28;2.79;65.33
74946;HTU21D;63509;45.250;38.102;2024-02-21T04:27:54;2.76;65.40
74946;HTU21D;63509;45.250;38.102;2024-02-21T04:30:20;2.73;65.42
74946;HTU21D;63509;45.250;38.102;2024-02-21T04:32:46;2.72;65.41
74946;HTU21D;63509;45.250;38.102;2024-02-21T04:35:13;2.67;65.48
74946;HTU21D;63509;45.250;38.102;2024-02-21T04:37:40;2.66;65.49
74946;HTU21D;63509;45.250;38.102;2024-02-21T04:40:06;2.65;65.67
74946;HTU21D;63509;45.250;38.102;2024-02-21T04:42:32;2.70;65.68
74946;HTU21D;63509;45.250;38.102;2024-02-21T04:44:59;2.70;65.63
74946;HTU21D;63509;45.250;38.102;2024-02-21T04:47:36;2.70;65.62
74946;HTU21D;63509;45.250;38.102;2024-02-21T04:50:06;2.70;65.62
74946;HTU21D;63509;45.250;38.102;2024-02-21T04:52:32;2.72;65.60
74946;HTU21D;63509;45.250;38.102;2024-02-21T04:54:58;2.72;65.59
74946;HTU21D;63509;45.250;38.102;2024-02-21T04:57:25;2.71;65.61
74946;HTU21D;63509;45.250;38.102;2024-02-21T04:59:52;2.72;65.61
74946;HTU21D;63509;45.250;38.102;2024-02-21T05:02:18;2.72;65.57
74946;HTU21D;63509;45.250;38.102;2024-02-21T05:04:45;2.69;65.50
74946;HTU21D;63509;45.250;38.102;2024-02-21T05:07:11;2.66;65.57
74946;HTU21D;63509;45.250;38.102;2024-02-21T05:09:38;2.67;65.63
74946;HTU21D;63509;45.250;38.102;2024-02-21T05:12:04;2.67;65.64
74946;HTU21D;63509;45.250;38.102;2024-02-21T05:14:31;2.70;65.65
74946;HTU21D;63509;45.250;38.102;2024-02-21T05:16:57;2.70;65.59
74946;HTU21D;63509;45.250;38.102;2024-02-21T05:19:23;2.68;65.58
74946;HTU21D;63509;45.250;38.102;2024-02-21T05:21:49;2.65;65.59
74946;HTU21D;63509;45.250;38.102;2024-02-21T05:24:15;2.60;65.46
74946;HTU21D;63509;45.250;38.102;2024-02-21T05:26:42;2.43;65.50
74946;HTU21D;63509;45.250;38.102;2024-02-21T05:29:08;2.31;65.66
74946;HTU21D;63509;45.250;38.102;2024-02-21T05:34:20;2.19;65.87
74946;HTU21D;63509;45.250;38.102;2024-02-21T05:36:46;2.16;65.92
74946;HTU21D;63509;45.250;38.102;2024-02-21T05:39:13;2.16;65.98
74946;HTU21D;63509;45.250;38.102;2024-02-21T05:41:40;2.21;66.04
74946;HTU21D;63509;45.250;38.102;2024-02-21T05:44:07;2.30;66.09
74946;HTU21D;63509;45.250;38.102;2024-02-21T05:46:34;2.41;66.11
74946;HTU21D;63509;45.250;38.102;2024-02-21T05:49:01;2.54;66.14
74946;HTU21D;63509;45.250;38.102;2024-02-21T05:51:27;2.67;66.11
74946;HTU21D;63509;45.250;38.102;2024-02-21T05:53:54;2.80;66.02
74946;HTU21D;63509;45.250;38.102;2024-02-21T05:56:20;2.85;65.96
74946;HTU21D;63509;45.250;38.102;2024-02-21T05:58:46;2.96;65.95
74946;HTU21D;63509;45.250;38.102;2024-02-21T06:01:12;3.05;65.88
74946;HTU21D;63509;45.250;38.102;2024-02-21T06:03:39;3.15;65.81
74946;HTU21D;63509;45.250;38.102;2024-02-21T06:06:05;3.23;65.77
74946;HTU21D;63509;45.250;38.102;2024-02-21T06:08:32;3.27;65.72
74946;HTU21D;63509;45.250;38.102;2024-02-21T06:10:58;3.32;65.63
74946;HTU21D;63509;45.250;38.102;2024-02-21T06:13:25;3.38;65.59
74946;HTU21D;63509;45.250;38.102;2024-02-21T06:15:53;3.43;65.58
74946;HTU21D;63509;45.250;38.102;2024-02-21T06:18:20;3.49;65.59
74946;HTU21D;63509;45.250;38.102;2024-02-21T06:20:47;3.55;65.51
74946;HTU21D;63509;45.250;38.102;2024-02-21T06:23:16;3.58;65.54
74946;HTU21D;63509;45.250;38.102;2024-02-21T06:25:42;3.68;65.61
74946;HTU21D;63509;45.250;38.102;2024-02-21T06:28:09;3.83;65.67
74946;HTU21D;63509;45.250;38.102;2024-02-21T06:30:35;3.98;65.72
74946;HTU21D;63509;45.250;38.102;2024-02-21T06:33:02;4.12;65.69
74946;HTU21D;63509;45.250;38.102;2024-02-21T06:35:29;4.27;65.72
74946;HTU21D;63509;45.250;38.102;2024-02-21T06:37:55;4.44;65.73
74946;HTU21D;63509;45.250;38.102;2024-02-21T06:40:22;4.60;65.66
74946;HTU21D;63509;45.250;38.102;2024-02-21T06:42:50;4.76;65.62
74946;HTU21D;63509;45.250;38.102;2024-02-21T06:45:16;4.89;65.57
74946;HTU21D;63509;45.250;38.102;2024-02-21T06:47:43;5.06;65.62
74946;HTU21D;63509;45.250;38.102;2024-02-21T06:50:09;5.26;65.73
74946;HTU21D;63509;45.250;38.102;2024-02-21T06:52:38;5.52;65.88
74946;HTU21D;63509;45.250;38.102;2024-02-21T06:55:04;5.75;65.87
74946;HTU21D;63509;45.250;38.102;2024-02-21T06:57:31;5.97;65.82
74946;HTU21D;63509;45.250;38.102;2024-02-21T06:59:57;6.12;65.65
74946;HTU21D;63509;45.250;38.102;2024-02-21T07:02:23;6.20;65.54
74946;HTU21D;63509;45.250;38.102;2024-02-21T07:04:49;6.34;65.46
74946;HTU21D;63509;45.250;38.102;2024-02-21T07:07:16;6.43;65.20
74946;HTU21D;63509;45.250;38.102;2024-02-21T07:09:42;6.54;65.21
74946;HTU21D;63509;45.250;38.102;2024-02-21T07:12:09;6.67;65.04
74946;HTU21D;63509;45.250;38.102;2024-02-21T07:14:37;6.75;64.88
74946;HTU21D;63509;45.250;38.102;2024-02-21T07:17:03;6.81;64.74
74946;HTU21D;63509;45.250;38.102;2024-02-21T07:19:29;6.82;64.54
74946;HTU21D;63509;45.250;38.102;2024-02-21T07:21:56;6.73;64.42
74946;HTU21D;63509;45.250;38.102;2024-02-21T07:24:23;6.70;64.43
74946;HTU21D;63509;45.250;38.102;2024-02-21T07:26:49;6.69;64.34
74946;HTU21D;63509;45.250;38.102;2024-02-21T07:29:15;6.69;64.30
74946;HTU21D;63509;45.250;38.102;2024-02-21T07:31:44;6.69;64.24
74946;HTU21D;63509;45.250;38.102;2024-02-21T07:34:10;6.79;64.37
74946;HTU21D;63509;45.250;38.102;2024-02-21T07:36:37;6.97;64.43
74946;HTU21D;63509;45.250;38.102;2024-02-21T07:39:04;7.15;64.48
74946;HTU21D;63509;45.250;38.102;2024-02-21T07:41:31;7.32;64.42
74946;HTU21D;63509;45.250;38.102;2024-02-21T07:43:57;7.43;64.22
74946;HTU21D;63509;45.250;38.102;2024-02-21T07:46:24;7.50;63.95
74946;HTU21D;63509;45.250;38.102;2024-02-21T07:48:50;7.49;63.71
74946;HTU21D;63509;45.250;38.102;2024-02-21T07:51:16;7.41;63.56
74946;HTU21D;63509;45.250;38.102;2024-02-21T07:53:44;7.33;63.45
74946;HTU21D;63509;45.250;38.102;2024-02-21T07:56:14;7.27;63.56
74946;HTU21D;63509;45.250;38.102;2024-02-21T07:58:44;7.20;63.56
74946;HTU21D;63509;45.250;38.102;2024-02-21T08:01:11;7.23;63.73
74946;HTU21D;63509;45.250;38.102;2024-02-21T08:03:37;7.27;63.72
74946;HTU21D;63509;45.250;38.102;2024-02-21T08:06:04;7.35;63.60
74946;HTU21D;63509;45.250;38.102;2024-02-21T08:08:30;7.42;63.68
74946;HTU21D;63509;45.250;38.102;2024-02-21T08:10:56;7.58;63.70
74946;HTU21D;63509;45.250;38.102;2024-02-21T08:13:23;7.57;63.47
74946;HTU21D;63509;45.250;38.102;2024-02-21T08:15:50;7.61;63.63
74946;HTU21D;63509;45.250;38.102;2024-02-21T08:18:16;7.73;63.56
74946;HTU21D;63509;45.250;38.102;2024-02-21T08:20:42;7.84;63.48
74946;HTU21D;63509;45.250;38.102;2024-02-21T08:23:08;7.96;63.49
74946;HTU21D;63509;45.250;38.102;2024-02-21T08:25:34;8.12;63.45
74946;HTU21D;63509;45.250;38.102;2024-02-21T08:28:01;8.29;63.29
74946;HTU21D;63509;45.250;38.102;2024-02-21T08:30:28;8.23;62.79
74946;HTU21D;63509;45.250;38.102;2024-02-21T08:32:55;8.11;62.71
74946;HTU21D;63509;45.250;38.102;2024-02-21T08:35:21;8.05;62.86
74946;HTU21D;63509;45.250;38.102;2024-02-21T08:37:48;8.16;63.11
74946;HTU21D;63509;45.250;38.102;2024-02-21T08:40:14;8.28;62.85
74946;HTU21D;63509;45.250;38.102;2024-02-21T08:42:43;8.31;62.98
74946;HTU21D;63509;45.250;38.102;2024-02-21T08:45:09;8.37;63.13
74946;HTU21D;63509;45.250;38.102;2024-02-21T08:47:36;8.49;62.92
74946;HTU21D;63509;45.250;38.102;2024-02-21T08:50:02;8.61;62.84
74946;HTU21D;63509;45.250;38.102;2024-02-21T08:52:28;8.73;62.60
74946;HTU21D;63509;45.250;38.102;2024-02-21T08:54:54;8.81;62.53
74946;HTU21D;63509;45.250;38.102;2024-02-21T08:57:20;8.96;62.49
74946;HTU21D;63509;45.250;38.102;2024-02-21T08:59:47;9.08;62.37
74946;HTU21D;63509;45.250;38.102;2024-02-21T09:02:13;9.21;62.26
74946;HTU21D;63509;45.250;38.102;2024-02-21T09:04:42;9.30;62.08
74946;HTU21D;63509;45.250;38.102;2024-02-21T09:07:10;9.41;62.08
74946;HTU21D;63509;45.250;38.102;2024-02-21T09:09:37;9.56;62.05
74946;HTU21D;63509;45.250;38.102;2024-02-21T09:12:09;9.69;61.89
74946;HTU21D;63509;45.250;38.102;2024-02-21T09:14:37;9.81;61.79
74946;HTU21D;63509;45.250;38.102;2024-02-21T09:17:06;9.94;61.57
74946;HTU21D;63509;45.250;38.102;2024-02-21T09:19:33;10.06;61.53
74946;HTU21D;63509;45.250;38.102;2024-02-21T09:22:00;10.23;61.44
74946;HTU21D;63509;45.250;38.102;2024-02-21T09:24:26;10.34;61.28
74946;HTU21D;63509;45.250;38.102;2024-02-21T09:26:53;10.41;61.26
74946;HTU21D;63509;45.250;38.102;2024-02-21T09:29:19;10.43;60.76
74946;HTU21D;63509;45.250;38.102;2024-02-21T09:31:45;10.44;60.70
74946;HTU21D;63509;45.250;38.102;2024-02-21T09:34:13;10.45;60.60
74946;HTU21D;63509;45.250;38.102;2024-02-21T09:36:39;10.46;60.35
74946;HTU21D;63509;45.250;38.102;2024-02-21T09:39:06;10.38;60.24
74946;HTU21D;63509;45.250;38.102;2024-02-21T09:41:37;10.36;60.34
74946;HTU21D;63509;45.250;38.102;2024-02-21T09:44:07;10.39;60.28
74946;HTU21D;63509;45.250;38.102;2024-02-21T09:49:32;10.31;60.09
74946;HTU21D;63509;45.250;38.102;2024-02-21T09:52:01;10.35;60.22
74946;HTU21D;63509;45.250;38.102;2024-02-21T09:54:32;10.41;60.24
74946;HTU21D;63509;45.250;38.102;2024-02-21T09:57:00;10.45;59.96
74946;HTU21D;63509;45.250;38.102;2024-02-21T09:59:28;10.48;59.87
74946;HTU21D;63509;45.250;38.102;2024-02-21T10:01:56;10.46;59.65
74946;HTU21D;63509;45.250;38.102;2024-02-21T10:04:23;10.41;59.47
74946;HTU21D;63509;45.250;38.102;2024-02-21T10:06:49;10.37;59.60
74946;HTU21D;63509;45.250;38.102;2024-02-21T10:09:26;10.42;59.69
74946;HTU21D;63509;45.250;38.102;2024-02-21T10:11:54;10.38;59.39
74946;HTU21D;63509;45.250;38.102;2024-02-21T10:14:21;10.36;59.40
74946;HTU21D;63509;45.250;38.102;2024-02-21T10:16:56;10.34;59.26
74946;HTU21D;63509;45.250;38.102;2024-02-21T10:19:24;10.23;59.20
74946;HTU21D;63509;45.250;38.102;2024-02-21T10:24:31;10.09;59.13
74946;HTU21D;63509;45.250;38.102;2024-02-21T10:27:05;10.03;59.12
74946;HTU21D;63509;45.250;38.102;2024-02-21T10:29:34;9.95;59.24
74946;HTU21D;63509;45.250;38.102;2024-02-21T10:32:08;9.92;59.19
74946;HTU21D;63509;45.250;38.102;2024-02-21T10:34:36;9.86;59.23
74946;HTU21D;63509;45.250;38.102;2024-02-21T10:37:07;9.89;59.22
74946;HTU21D;63509;45.250;38.102;2024-02-21T10:39:39;9.88;58.99
74946;HTU21D;63509;45.250;38.102;2024-02-21T10:42:05;9.76;59.08
74946;HTU21D;63509;45.250;38.102;2024-02-21T10:44:33;9.72;58.95
74946;HTU21D;63509;45.250;38.102;2024-02-21T10:47:00;9.71;59.49
74946;HTU21D;63509;45.250;38.102;2024-02-21T10:49:30;9.65;59.19
74946;HTU21D;63509;45.250;38.102;2024-02-21T10:55:04;9.65;59.22
74946;HTU21D;63509;45.250;38.102;2024-02-21T10:57:34;9.68;58.87
74946;HTU21D;63509;45.250;38.102;2024-02-21T11:00:03;9.56;58.60
74946;HTU21D;63509;45.250;38.102;2024-02-21T11:02:34;9.54;58.77
74946;HTU21D;63509;45.250;38.102;2024-02-21T11:05:02;9.55;58.64
74946;HTU21D;63509;45.250;38.102;2024-02-21T11:07:32;9.55;58.60
74946;HTU21D;63509;45.250;38.102;2024-02-21T11:09:59;9.49;58.51
74946;HTU21D;63509;45.250;38.102;2024-02-21T11:12:26;9.41;58.42
74946;HTU21D;63509;45.250;38.102;2024-02-21T11:15:06;9.33;58.48
74946;HTU21D;63509;45.250;38.102;2024-02-21T11:17:32;9.26;58.49
74946;HTU21D;63509;45.250;38.102;2024-02-21T11:19:58;9.23;58.44
74946;HTU21D;63509;45.250;38.102;2024-02-21T11:22:27;9.15;58.44
74946;HTU21D;63509;45.250;38.102;2024-02-21T11:25:06;9.12;58.47
74946;HTU21D;63509;45.250;38.102;2024-02-21T11:27:47;9.08;58.40
74946;HTU21D;63509;45.250;38.102;2024-02-21T11:30:13;9.05;58.38
74946;HTU21D;63509;45.250;38.102;2024-02-21T11:32:48;9.02;58.22
74946;HTU21D;63509;45.250;38.102;2024-02-21T11:35:20;8.96;58.13
74946;HTU21D;63509;45.250;38.102;2024-02-21T11:37:47;8.93;58.15
74946;HTU21D;63509;45.250;38.102;2024-02-21T11:40:13;8.94;58.19
74946;HTU21D;63509;45.250;38.102;2024-02-21T11:42:39;9.00;58.21
74946;HTU21D;63509;45.250;38.102;2024-02-21T11:45:07;9.07;58.13
74946;HTU21D;63509;45.250;38.102;2024-02-21T11:47:35;9.07;57.89
74946;HTU21D;63509;45.250;38.102;2024-02-21T11:50:09;9.02;57.58
74946;HTU21D;63509;45.250;38.102;2024-02-21T11:52:36;8.86;57.43
74946;HTU21D;63509;45.250;38.102;2024-02-21T11:55:02;8.77;57.61
74946;HTU21D;63509;45.250;38.102;2024-02-21T11:57:31;8.70;57.65
74946;HTU21D;63509;45.250;38.102;2024-02-21T11:59:57;8.70;57.80
74946;HTU21D;63509;45.250;38.102;2024-02-21T12:02:26;8.73;57.84
74946;HTU21D;63509;45.250;38.102;2024-02-21T12:04:53;8.75;57.87
74946;HTU21D;63509;45.250;38.102;2024-02-21T12:07:21;8.76;57.78
74946;HTU21D;63509;45.250;38.102;2024-02-21T12:09:49;8.75;57.85
74946;HTU21D;63509;45.250;38.102;2024-02-21T12:12:20;8.76;57.82
74946;HTU21D;63509;45.250;38.102;2024-02-21T12:14:46;8.77;57.77
74946;HTU21D;63509;45.250;38.102;2024-02-21T12:17:12;8.70;57.54
74946;HTU21D;63509;45.250;38.102;2024-02-21T12:19:38;8.58;57.37
74946;HTU21D;63509;45.250;38.102;2024-02-21T12:22:05;8.39;57.38
74946;HTU21D;63509;45.250;38.102;2024-02-21T12:24:32;8.28;57.51
74946;HTU21D;63509;45.250;38.102;2024-02-21T12:26:58;8.24;57.58
74946;HTU21D;63509;45.250;38.102;2024-02-21T12:29:25;8.14;57.59
74946;HTU21D;63509;45.250;38.102;2024-02-21T12:31:52;8.05;57.53
74946;HTU21D;63509;45.250;38.102;2024-02-21T12:34:21;7.98;57.89
74946;HTU21D;63509;45.250;38.102;2024-02-21T12:36:48;7.88;57.98
74946;HTU21D;63509;45.250;38.102;2024-02-21T12:39:15;7.86;58.02
74946;HTU21D;63509;45.250;38.102;2024-02-21T12:41:42;7.82;58.00
74946;HTU21D;63509;45.250;38.102;2024-02-21T12:44:10;7.79;58.03
74946;HTU21D;63509;45.250;38.102;2024-02-21T12:46:40;7.76;58.01
74946;HTU21D;63509;45.250;38.102;2024-02-21T12:49:06;7.76;58.00
74946;HTU21D;63509;45.250;38.102;2024-02-21T12:51:36;7.67;57.83
74946;HTU21D;63509;45.250;38.102;2024-02-21T12:54:03;7.52;57.86
74946;HTU21D;63509;45.250;38.102;2024-02-21T12:56:30;7.37;57.87
74946;HTU21D;63509;45.250;38.102;2024-02-21T12:58:57;7.20;57.97
74946;HTU21D;63509;45.250;38.102;2024-02-21T13:01:24;7.08;58.09
74946;HTU21D;63509;45.250;38.102;2024-02-21T13:03:50;7.01;58.27
74946;HTU21D;63509;45.250;38.102;2024-02-21T13:06:17;6.95;58.19
74946;HTU21D;63509;45.250;38.102;2024-02-21T13:08:45;6.86;58.29
74946;HTU21D;63509;45.250;38.102;2024-02-21T13:11:12;6.82;58.38
74946;HTU21D;63509;45.250;38.102;2024-02-21T13:13:39;6.80;58.36
74946;HTU21D;63509;45.250;38.102;2024-02-21T13:16:05;6.74;58.38
74946;HTU21D;63509;45.250;38.102;2024-02-21T13:18:31;6.71;58.48
74946;HTU21D;63509;45.250;38.102;2024-02-21T13:20:58;6.71;58.55
74946;HTU21D;63509;45.250;38.102;2024-02-21T13:23:24;6.73;58.55
74946;HTU21D;63509;45.250;38.102;2024-02-21T13:25:51;6.75;58.52
74946;HTU21D;63509;45.250;38.102;2024-02-21T13:28:18;6.76;58.54
74946;HTU21D;63509;45.250;38.102;2024-02-21T13:30:44;6.76;58.53
74946;HTU21D;63509;45.250;38.102;2024-02-21T13:33:11;6.78;58.54
74946;HTU21D;63509;45.250;38.102;2024-02-21T13:35:37;6.81;58.54
74946;HTU21D;63509;45.250;38.102;2024-02-21T13:38:04;6.81;58.54
74946;HTU21D;63509;45.250;38.102;2024-02-21T13:40:31;6.82;58.54
74946;HTU21D;63509;45.250;38.102;2024-02-21T13:42:57;6.84;58.54
74946;HTU21D;63509;45.250;38.102;2024-02-21T13:45:24;6.84;58.53
74946;HTU21D;63509;45.250;38.102;2024-02-21T13:47:50;6.84;58.50
74946;HTU21D;63509;45.250;38.102;2024-02-21T13:50:18;6.82;58.51
74946;HTU21D;63509;45.250;38.102;2024-02-21T13:52:54;6.80;58.51
74946;HTU21D;63509;45.250;38.102;2024-02-21T13:55:21;6.79;58.51
74946;HTU21D;63509;45.250;38.102;2024-02-21T13:57:48;6.78;58.53
74946;HTU21D;63509;45.250;38.102;2024-02-21T14:00:15;6.76;58.54
74946;HTU21D;63509;45.250;38.102;2024-02-21T14:02:41;6.75;58.57
74946;HTU21D;63509;45.250;38.102;2024-02-21T14:05:08;6.73;58.59
74946;HTU21D;63509;45.250;38.102;2024-02-21T14:07:36;6.72;58.61
74946;HTU21D;63509;45.250;38.102;2024-02-21T14:10:03;6.71;58.63
74946;HTU21D;63509;45.250;38.102;2024-02-21T14:12:30;6.67;58.61
74946;HTU21D;63509;45.250;38.102;2024-02-21T14:15:00;6.63;58.63
74946;HTU21D;63509;45.250;38.102;2024-02-21T14:17:27;6.60;58.68
74946;HTU21D;63509;45.250;38.102;2024-02-21T14:19:53;6.58;58.74
74946;HTU21D;63509;45.250;38.102;2024-02-21T14:22:19;6.56;58.71
74946;HTU21D;63509;45.250;38.102;2024-02-21T14:24:46;6.53;58.74
74946;HTU21D;63509;45.250;38.102;2024-02-21T14:27:13;6.50;58.77
74946;HTU21D;63509;45.250;38.102;2024-02-21T14:29:40;6.48;58.80
74946;HTU21D;63509;45.250;38.102;2024-02-21T14:32:07;6.48;58.83
74946;HTU21D;63509;45.250;38.102;2024-02-21T14:34:37;6.43;58.84
74946;HTU21D;63509;45.250;38.102;2024-02-21T14:37:03;6.40;58.86
74946;HTU21D;63509;45.250;38.102;2024-02-21T14:39:30;6.36;58.88
74946;HTU21D;63509;45.250;38.102;2024-02-21T14:41:57;6.35;58.95
74946;HTU21D;63509;45.250;38.102;2024-02-21T14:44:25;6.33;58.96
74946;HTU21D;63509;45.250;38.102;2024-02-21T14:46:53;6.31;58.98
74946;HTU21D;63509;45.250;38.102;2024-02-21T14:49:19;6.29;58.98
74946;HTU21D;63509;45.250;38.102;2024-02-21T14:51:46;6.25;59.02
74946;HTU21D;63509;45.250;38.102;2024-02-21T14:54:12;6.21;59.03
74946;HTU21D;63509;45.250;38.102;2024-02-21T14:56:39;6.20;59.04
74946;HTU21D;63509;45.250;38.102;2024-02-21T14:59:05;6.16;59.07
74946;HTU21D;63509;45.250;38.102;2024-02-21T15:01:36;6.13;59.12
74946;HTU21D;63509;45.250;38.102;2024-02-21T15:04:04;6.10;59.13
74946;HTU21D;63509;45.250;38.102;2024-02-21T15:06:34;6.05;59.17
74946;HTU21D;63509;45.250;38.102;2024-02-21T15:09:06;6.01;59.23
74946;HTU21D;63509;45.250;38.102;2024-02-21T15:11:34;5.99;59.28
74946;HTU21D;63509;45.250;38.102;2024-02-21T15:14:01;5.97;59.28
74946;HTU21D;63509;45.250;38.102;2024-02-21T15:16:27;5.95;59.31
74946;HTU21D;63509;45.250;38.102;2024-02-21T15:18:54;5.90;59.34
74946;HTU21D;63509;45.250;38.102;2024-02-21T15:21:20;5.85;59.33
74946;HTU21D;63509;45.250;38.102;2024-02-21T15:23:46;5.83;59.37
74946;HTU21D;63509;45.250;38.102;2024-02-21T15:26:13;5.80;59.43
74946;HTU21D;63509;45.250;38.102;2024-02-21T15:28:41;5.75;59.48